LNH weather

Lago Nahuel Huapi Airport
Nahuel Huapi, Río Negro Province, Argentina

Public forecast

Using degrees Celsius for public forecast. Weather courtesy of forecast.io.

METAR (pilot weather report)

Closest report is San Carlos De Bariloche Airport, 3.4 nm (6.2 km) SSE. Retrieved 2019/05/22 10:00 UTC (54 minutes ago):

SAZS 221000Z 18003KT 9999 OVC009 00/M01 Q1024

TAF (pilot weather forecast)

Closest forecast is San Carlos De Bariloche Airport, 3.4 nm (6.2 km) SSE. Retrieved 2019/05/22 06:00 UTC (5 hours ago):

TAF SAZS 220500Z 2206/2306 VRB05KT 9999 OVC008 TX09/2218Z TNM02/2209Z PROB30 2208/2211 1500 BR BECMG 2213/2216 29005KT CAVOK